• Join FlightAware (Why Join?)
  • Login
  • US Flag 
04:29PM EDT


 

Airport Tracker/Info


-or-


 

Live Flight TrackerFlight Track Log ✈ AVN20 ✈ 04-Nov-2013 ✈ NVVV / VLI - YBBN / BNE

Flight Track Log - Related Links

Times and Time Zones

All times are in EST time to prevent confusion due to time zone crossing. See the AVN20 flight status page for this flight to view local times or setup timezone preferences in your user account.

Time Position Orientation Groundspeed Altitude Reporting Facility
EST Latitude Longitude Course Direction KTS MPH feet Rate Location/Type
12:17AM -17.8814 168.0681 233° Southwest  Level FlightAware Approximate
12:18AM -17.9269 168.0051 233° Southwest  Level FlightAware Approximate
12:19AM -17.9723 167.9421 233° Southwest  Level FlightAware Approximate
12:20AM -18.0177 167.8790 233° Southwest  Level FlightAware Approximate
12:21AM -18.0632 167.8159 233° Southwest  Level FlightAware Approximate
12:22AM -18.1085 167.7528 233° Southwest  Level FlightAware Approximate
12:23AM -18.1539 167.6896 233° Southwest  Level FlightAware Approximate
12:24AM -18.1992 167.6264 233° Southwest  Level FlightAware Approximate
12:25AM -18.2446 167.5632 233° Southwest  Level FlightAware Approximate
12:26AM -18.2899 167.5000 233° Southwest  Level FlightAware Approximate
12:27AM -18.3351 167.4367 233° Southwest  Level FlightAware Approximate
12:28AM -18.3804 167.3733 233° Southwest  Level FlightAware Approximate
12:29AM -18.4256 167.3100 233° Southwest  Level FlightAware Approximate
12:30AM -18.4708 167.2466 233° Southwest  Level FlightAware Approximate
12:31AM -18.5161 167.1832 233° Southwest  Level FlightAware Approximate
12:32AM -18.5612 167.1197 233° Southwest  Level FlightAware Approximate
12:33AM -18.6064 167.0562 233° Southwest  Level FlightAware Approximate
12:34AM -18.6515 166.9927 233° Southwest  Level FlightAware Approximate
12:35AM -18.6966 166.9291 233° Southwest  Level FlightAware Approximate
12:36AM -18.7417 166.8655 233° Southwest  Level FlightAware Approximate
12:37AM -18.7868 166.8019 233° Southwest  Level FlightAware Approximate
12:38AM -18.8318 166.7382 233° Southwest  Level FlightAware Approximate
12:39AM -18.8769 166.6745 233° Southwest  Level FlightAware Approximate
12:40AM -18.9219 166.6108 233° Southwest  Level FlightAware Approximate
12:41AM -18.9668 166.5470 233° Southwest  Level FlightAware Approximate
12:42AM -19.0118 166.4832 233° Southwest  Level FlightAware Approximate
12:43AM -19.0567 166.4194 233° Southwest  Level FlightAware Approximate
12:44AM -19.1017 166.3555 233° Southwest  Level FlightAware Approximate
12:45AM -19.1466 166.2916 233° Southwest  Level FlightAware Approximate
12:46AM -19.1914 166.2277 233° Southwest  Level FlightAware Approximate
12:47AM -19.2363 166.1637 233° Southwest  Level FlightAware Approximate
12:48AM -19.2811 166.0997 233° Southwest  Level FlightAware Approximate
12:49AM -19.3259 166.0357 233° Southwest  Level FlightAware Approximate
12:50AM -19.3707 165.9716 233° Southwest  Level FlightAware Approximate
12:51AM -19.4155 165.9075 233° Southwest  Level FlightAware Approximate
12:52AM -19.4602 165.8433 234° Southwest  Level FlightAware Approximate
12:53AM -19.5049 165.7792 234° Southwest  Level FlightAware Approximate
12:54AM -19.5496 165.7149 234° Southwest  Level FlightAware Approximate
12:55AM -19.5943 165.6507 234° Southwest  Level FlightAware Approximate
12:56AM -19.6389 165.5864 234° Southwest  Level FlightAware Approximate
12:57AM -19.6836 165.5221 234° Southwest  Level FlightAware Approximate
12:58AM -19.7282 165.4577 234° Southwest  Level FlightAware Approximate
12:59AM -19.7727 165.3933 234° Southwest  Level FlightAware Approximate
01:00AM -19.8173 165.3289 234° Southwest  Level FlightAware Approximate
01:01AM -19.8618 165.2644 234° Southwest  Level FlightAware Approximate
01:02AM -19.9063 165.1999 234° Southwest  Level FlightAware Approximate
01:03AM -19.9508 165.1353 234° Southwest  Level FlightAware Approximate
01:04AM -19.9954 165.0709 236° Southwest  Level Estimated
01:05AM -20.0399 165.0063 234° Southwest  Level FlightAware Approximate
01:05AM -21.3714 163.0355 234° Southwest 40,000  Level Aus ATC (Calculated)
01:07AM -21.4474 162.9213 234° Southwest  Level FlightAware Approximate
01:08AM -21.4864 162.8627 234° Southwest  Level FlightAware Approximate
01:08AM -21.5869 162.7101 235° Southwest 40,000  Level Aus ATC (Calculated)
01:10AM -21.6627 162.5955 235° Southwest  Level FlightAware Approximate
01:11AM -21.7016 162.5367 235° Southwest  Level FlightAware Approximate
01:11AM -21.7817 162.4143 235° Southwest 40,000  Level Aus ATC (Calculated)
01:12AM -21.8205 162.3554 235° Southwest  Level FlightAware Approximate
01:13AM -21.8592 162.2965 235° Southwest  Level FlightAware Approximate
01:13AM -21.9284 162.1904 235° Southwest 40,000  Level Aus ATC (Calculated)
01:15AM -21.9989 162.0829 235° Southwest  Level FlightAware Approximate
01:16AM -22.0380 162.0231 235° Southwest  Level FlightAware Approximate
01:17AM -22.0772 161.9633 235° Southwest  Level FlightAware Approximate
01:18AM -22.1162 161.9034 235° Southwest  Level FlightAware Approximate
01:19AM -22.1553 161.8436 235° Southwest  Level FlightAware Approximate
01:20AM -22.1944 161.7836 235° Southwest  Level FlightAware Approximate
01:21AM -22.2334 161.7237 235° Southwest  Level FlightAware Approximate
01:22AM -22.2724 161.6637 235° Southwest  Level FlightAware Approximate
01:23AM -22.3114 161.6037 235° Southwest  Level FlightAware Approximate
01:24AM -22.3503 161.5436 235° Southwest  Level FlightAware Approximate
01:25AM -22.3893 161.4835 235° Southwest  Level FlightAware Approximate
01:26AM -22.4282 161.4234 235° Southwest  Level FlightAware Approximate
01:27AM -22.4671 161.3632 235° Southwest  Level FlightAware Approximate
01:28AM -22.5060 161.3030 235° Southwest  Level FlightAware Approximate
01:29AM -22.5448 161.2428 235° Southwest  Level FlightAware Approximate
01:30AM -22.5837 161.1826 235° Southwest  Level FlightAware Approximate
01:31AM -22.6225 161.1223 235° Southwest  Level FlightAware Approximate
01:32AM -22.6612 161.0619 235° Southwest  Level FlightAware Approximate
01:33AM -22.7000 161.0016 235° Southwest  Level FlightAware Approximate
01:34AM -22.7388 160.9412 235° Southwest  Level FlightAware Approximate
01:35AM -22.7775 160.8808 235° Southwest  Level FlightAware Approximate
01:36AM -22.8162 160.8203 235° Southwest  Level FlightAware Approximate
01:37AM -22.8548 160.7598 235° Southwest  Level FlightAware Approximate
01:38AM -22.8935 160.6993 235° Southwest  Level FlightAware Approximate
01:39AM -22.9321 160.6387 235° Southwest  Level FlightAware Approximate
01:40AM -22.9707 160.5781 235° Southwest  Level FlightAware Approximate
01:41AM -23.0093 160.5175 235° Southwest  Level FlightAware Approximate
01:42AM -23.0478 160.4568 235° Southwest  Level FlightAware Approximate
01:43AM -23.0864 160.3961 235° Southwest  Level FlightAware Approximate
01:44AM -23.1249 160.3353 235° Southwest  Level FlightAware Approximate
01:45AM -23.1634 160.2746 235° Southwest  Level FlightAware Approximate
01:46AM -23.2018 160.2137 235° Southwest  Level FlightAware Approximate
01:46AM -24.2289 158.5554 236° Southwest 38,000  Level Aus ATC (Calculated)
01:47AM -24.2698 158.4888 236° Southwest  Level FlightAware Approximate
01:47AM -24.3599 158.3414 236° Southwest 38,000  Level Aus ATC (Calculated)
01:48AM -24.3106 158.4221 236° Southwest  Level FlightAware Approximate
01:49AM -24.4014 158.2735 236° Southwest  Level FlightAware Approximate
01:50AM -24.4421 158.2066 236° Southwest  Level FlightAware Approximate
01:51AM -24.4828 158.1397 236° Southwest  Level FlightAware Approximate
01:52AM -24.5235 158.0728 236° Southwest  Level FlightAware Approximate
01:53AM -24.5642 158.0058 236° Southwest  Level FlightAware Approximate
01:54AM -24.6048 157.9388 236° Southwest  Level FlightAware Approximate
01:55AM -24.6454 157.8717 236° Southwest  Level FlightAware Approximate
01:55AM -24.9133 157.4267 237° Southwest 38,000  Level Aus ATC (Calculated)
01:56AM -24.6859 157.8046 236° Southwest  Level FlightAware Approximate
01:57AM -24.9664 157.3380 237° Southwest  Level FlightAware Approximate
01:58AM -25.0068 157.2705 224° Southwest  Level Estimated
01:59AM -25.0556 157.2103 228° Southwest  Level FlightAware Approximate
02:00AM -25.1044 157.1500 228° Southwest  Level FlightAware Approximate
02:01AM -25.1532 157.0896 228° Southwest  Level FlightAware Approximate
02:02AM -25.2019 157.0292 228° Southwest  Level FlightAware Approximate
02:03AM -25.2507 156.9687 228° Southwest  Level FlightAware Approximate
02:04AM -25.2994 156.9082 228° Southwest  Level FlightAware Approximate
02:05AM -25.3480 156.8477 228° Southwest  Level FlightAware Approximate
02:06AM -25.3967 156.7871 228° Southwest  Level FlightAware Approximate
02:06AM -25.6848 156.1216 57° Northeast 38,000  Level Aus ATC (Calculated)
02:07AM -25.4453 156.7264 228° Southwest  Level FlightAware Approximate
02:07AM -25.7167 156.0668 57° Northeast 16,600  Level Aus ATC (Calculated)
02:08AM -25.8302 155.9432 56° Northeast 16,600 12,840 Level Aus ATC (Calculated)
02:08AM -25.0447 157.2069 228° Southwest 388 447 38,000 17,100 Climbing Aus ATC (RADAR)
02:09AM -25.0700 157.1653 236° Southwest 387 445 38,000  Level Aus ATC (RADAR)
02:09AM -25.1051 157.1069 236° Southwest 385 443 38,000  Level Aus ATC (RADAR)
02:10AM -25.1535 157.0224 238° Southwest 384 442 38,000  Level Aus ATC (RADAR)
02:11AM -25.1879 156.9638 237° Southwest 384 442 38,000  Level Aus ATC (RADAR)
02:12AM -25.2369 156.8799 237° Southwest 384 442 38,000  Level Aus ATC (RADAR)
02:12AM -25.2573 156.8470 236° Southwest 384 442 38,000  Level Aus ATC (RADAR)
02:13AM -25.2943 156.7905 234° Southwest 383 441 38,000  Level Aus ATC (RADAR)
02:14AM -25.3524 156.6890 238° Southwest 384 442 38,000  Level Aus ATC (RADAR)
02:14AM -25.3759 156.6463 239° Southwest 384 442 38,000  Level Aus ATC (RADAR)
02:15AM -25.4107 156.5882 236° Southwest 383 441 38,000  Level Aus ATC (RADAR)
02:15AM -25.4556 156.5143 236° Southwest 381 438 38,000  Level Aus ATC (RADAR)
02:16AM -25.4948 156.4481 237° Southwest 381 438 38,000 60 Level Aus ATC (RADAR)
02:17AM -25.5386 156.3730 237° Southwest 381 438 38,100 60 Climbing Aus ATC (RADAR)
02:17AM -25.5619 156.3306 239° Southwest 381 438 38,100  Level Aus ATC (RADAR)
02:18AM -25.5954 156.2717 238° Southwest 382 440 38,100 -180 Level Aus ATC (RADAR)
02:18AM -25.6026 156.2622 238° Southwest 383 441 38,000 -180 Descending FlightAware ADS-B (YPRC)
02:18AM -25.6396 156.1990 237° Southwest 374 430 38,000 60 Level FlightAware ADS-B (YPRC)
02:19AM -25.6796 156.1274 237° Southwest 366 421 38,100  Climbing Aus ATC (RADAR)
02:19AM -25.6810 156.1280 237° Southwest 374 430 38,000 -180 Descending FlightAware
02:20AM -25.7010 156.0940 237° Southwest 374 430 38,000  Level FlightAware
02:20AM -25.7292 156.0536 232° Southwest 385 443 38,000  Level FlightAware ADS-B (YPRC)
02:21AM -25.7785 155.9994 225° Southwest 386 444 38,000  Level FlightAware ADS-B (YPRC)
02:21AM -25.8163 155.9581 225° Southwest 386 444 38,000  Level FlightAware ADS-B (YPRC)
02:22AM -25.8676 155.9023 224° Southwest 386 444 38,000  Level FlightAware ADS-B (YPRC)
02:22AM -25.9043 155.8624 224° Southwest 386 444 38,000  Level FlightAware ADS-B (YPRC)
02:23AM -25.9419 155.8212 225° Southwest 386 444 38,000  Level FlightAware ADS-B (YPRC)
02:23AM -25.9759 155.7840 225° Southwest 388 447 38,000  Level FlightAware ADS-B (YPRC)
02:24AM -26.0204 155.7351 225° Southwest 389 448 38,000  Level FlightAware ADS-B (YPRC)
02:24AM -26.0594 155.6924 225° Southwest 390 449 38,000  Level FlightAware ADS-B (YPRC)
02:25AM -26.0959 155.6523 225° Southwest 389 448 38,000  Level FlightAware ADS-B (YPRC)
02:25AM -26.1346 155.6099 225° Southwest 389 448 38,000  Level FlightAware ADS-B (YPRC)
02:26AM -26.1629 155.5788 225° Southwest 388 447 38,000 60 Level FlightAware ADS-B (YPRC)
02:26AM -26.2167 155.5222 225° Southwest 384 442 38,100  Climbing Aus ATC (RADAR)
02:26AM -26.2250 155.5105 225° Southwest 387 445 38,000 -180 Descending FlightAware ADS-B (YPRC)
02:27AM -26.2746 155.4557 225° Southwest 385 443 38,000  Level FlightAware ADS-B (YPRC)
02:28AM -26.3143 155.4121 225° Southwest 383 441 38,000  Level FlightAware ADS-B (YPRC)
02:28AM -26.3630 155.3583 225° Southwest 381 438 38,000  Level FlightAware ADS-B (YPRC)
02:29AM -26.3997 155.3176 225° Southwest 380 437 38,000  Level FlightAware ADS-B (YPRC)
02:29AM -26.4386 155.2746 225° Southwest 379 436 38,000  Level FlightAware ADS-B (YPRC)
02:30AM -26.4756 155.2336 225° Southwest 378 435 38,000  Level FlightAware ADS-B (YPRC)
02:30AM -26.5242 155.1797 225° Southwest 378 435 38,000  Level FlightAware ADS-B (YPRC)
02:31AM -26.5622 155.1376 225° Southwest 377 434 38,000  Level FlightAware ADS-B (YPRC)
02:31AM -26.6001 155.0956 225° Southwest 376 433 38,000  Level FlightAware ADS-B (YPRC)
02:32AM -26.6367 155.0546 225° Southwest 375 432 38,000  Level FlightAware ADS-B (YPRC)
02:32AM -26.6731 155.0141 225° Southwest 374 430 38,000  Level FlightAware ADS-B (YPRC)
02:33AM -26.7099 154.9730 225° Southwest 373 429 38,000  Level FlightAware ADS-B (YPRC)
02:34AM -26.7970 154.8760 225° Southwest 372 428 38,000 120 Level FlightAware
02:34AM -26.8036 154.8689 225° Southwest 369 425 38,200  Climbing Aus ATC (RADAR)
02:35AM -26.8445 154.8226 225° Southwest 373 429 38,000 -240 Descending FlightAware ADS-B (YPRC)
02:35AM -26.8810 154.7817 225° Southwest 373 429 38,000 -1,440 Level FlightAware ADS-B (YPRC)
02:36AM -26.9304 154.7263 225° Southwest 383 441 36,300 -2,820 Descending FlightAware ADS-B (YPRC)
02:36AM -26.9680 154.6836 225° Southwest 391 450 34,700 -3,180 Descending FlightAware ADS-B (YPRC)
02:37AM -27.0187 154.6264 225° Southwest 397 457 32,700 -2,880 Descending FlightAware ADS-B (YPRC)
02:38AM -27.0574 154.5831 225° Southwest 392 451 31,400 -2,520 Descending FlightAware ADS-B (YPRC)
02:38AM -27.0963 154.5399 225° Southwest 388 447 30,200 -2,400 Descending FlightAware ADS-B (YPRC)
02:39AM -27.1325 154.4994 225° Southwest 383 441 29,000 -2,220 Descending FlightAware ADS-B (YPRC)
02:39AM -27.1365 154.4949 225° Southwest 378 435 29,000 -2,220 Level FlightAware ADS-B (NZNE)
02:39AM -27.1839 154.4410 225° Southwest 378 435 27,500 -2,400 Descending FlightAware ADS-B (YPRC)
02:40AM -27.2188 154.4015 225° Southwest 373 429 26,300 -2,400 Descending FlightAware ADS-B (YPRC)
02:40AM -27.2679 154.3458 225° Southwest 366 421 24,800 -2,400 Descending FlightAware ADS-B (YPRC)
02:41AM -27.3039 154.3049 225° Southwest 361 415 23,600 -2,280 Descending FlightAware ADS-B (YPRC)
02:41AM -27.3180 154.2890 225° Southwest 373 429 23,200 -2,160 Descending FlightAware ADS-B (NZNE)
02:42AM -27.3619 154.2395 225° Southwest 351 404 21,800 -2,220 Descending FlightAware ADS-B (YPRC)
02:42AM -27.4021 154.1938 225° Southwest 345 397 20,500 -2,160 Descending FlightAware ADS-B (NZNE)
02:43AM -27.4403 154.1501 225° Southwest 338 389 19,300 -1,920 Descending FlightAware ADS-B (YPRC)
02:44AM -27.4831 154.1016 225° Southwest 325 374 18,200 -1,260 Descending FlightAware ADS-B (YPRC)
02:44AM -27.5110 154.0636 230° Southwest 300 345 17,900 -780 Descending FlightAware ADS-B (YPRC)
02:44AM -27.5144 154.0508 253° West 299 344 17,700 -1,200 Descending FlightAware ADS-B (YPRC)
02:44AM -27.5153 154.0362 266° West 305 351 17,500 -1,680 Descending FlightAware ADS-B (YPRC)
02:45AM -27.5075 153.9854 280° West 315 362 16,600 -1,800 Descending FlightAware ADS-B (YPRC)
02:45AM -27.4993 153.9372 281° West 312 359 15,700 -1,740 Descending FlightAware ADS-B (YPRC)
02:46AM -27.4916 153.8896 280° West 310 357 14,900 -1,680 Descending FlightAware ADS-B (YPRC)
02:46AM -27.4839 153.8415 280° West 307 353 14,000 -1,680 Descending FlightAware ADS-B (YPRC)
02:47AM -27.4808 153.8230 281° West 304 350 13,700 -1,740 Descending FlightAware ADS-B (NZNE)
02:47AM -27.4710 153.7648 281° West 299 344 12,600 -1,740 Descending FlightAware ADS-B (YPRC)
02:48AM -27.4637 153.7203 280° West 294 338 11,800 -1,620 Descending FlightAware ADS-B (YPRC)
02:48AM -27.4561 153.6744 281° West 290 334 11,000 -1,680 Descending FlightAware ADS-B (YPRC)
02:49AM -27.4493 153.6326 280° West 284 327 10,100 -1,440 Descending FlightAware ADS-B (YPRC)
02:49AM -27.4442 153.6019 281° West 266 306 9,800 -1,680 Descending FlightAware ADS-B (YPRC)
02:49AM -27.4395 153.5750 281° West 264 304 9,000 -2,280 Descending FlightAware ADS-B (YPRC)
02:50AM -27.4351 153.5484 281° West 260 299 8,300 -1,980 Descending FlightAware ADS-B (YPRC)
02:50AM -27.4305 153.5218 281° West 259 298 7,700 -1,620 Descending FlightAware ADS-B (YPRC)
02:50AM -27.4262 153.5096 292° West 262 302 7,500 -900 Descending FlightAware ADS-B (YPRC)
02:50AM -27.4210 153.5006 303° West 270 311 7,400 -420 Descending FlightAware ADS-B (YPRC)
02:51AM -27.4006 153.4780 315° West 274 315 7,300 -480 Descending FlightAware ADS-B (YPRC)
02:51AM -27.3830 153.4596 317° Northwest 272 313 7,100 -960 Descending FlightAware ADS-B (YPRC)
02:51AM -27.3639 153.4398 317° Northwest 274 315 6,700 -1,080 Descending FlightAware ADS-B (YPRC)
02:52AM -27.3455 153.4206 317° Northwest 273 314 6,400 -900 Descending FlightAware ADS-B (YPRC)
02:52AM -27.3270 153.4013 317° Northwest 267 307 6,100 -900 Descending FlightAware ADS-B (YPRC)
02:52AM -27.3097 153.3832 317° Northwest 261 300 5,800 -960 Descending FlightAware ADS-B (YPRC)
02:53AM -27.2913 153.3641 317° Northwest 258 297 5,500 -900 Descending FlightAware ADS-B (YPRC)
02:53AM -27.2737 153.3459 317° Northwest 258 297 5,200 -1,080 Descending FlightAware ADS-B (YPRC)
02:53AM -27.2554 153.3295 321° Northwest 258 297 4,800 -1,080 Descending FlightAware ADS-B (YPRC)
02:54AM -27.2365 153.3139 324° Northwest 252 290 4,500 -780 Descending FlightAware ADS-B (YPRC)
02:54AM -27.2178 153.2980 323° Northwest 243 280 4,300 -840 Descending FlightAware ADS-B (YPRC)
02:54AM -27.2110 153.2887 309° West 238 274 4,100 -960 Descending FlightAware ADS-B (YPRC)
02:54AM -27.2083 153.2787 287° West 227 261 4,000 -900 Descending FlightAware ADS-B (YPRC)
02:55AM -27.2087 153.2653 268° West 218 251 3,800 -1,020 Descending FlightAware ADS-B (YPRC)
02:55AM -27.2101 153.2436 266° West 211 243 3,500 -840 Descending FlightAware ADS-B (YPRC)
02:55AM -27.2119 153.2333 259° West 204 235 3,400 -600 Descending FlightAware ADS-B (YPRC)
02:55AM -27.2174 153.2249 233° Southwest 191 220 3,300 -900 Descending FlightAware ADS-B (YPRC)
02:55AM -27.2252 153.2193 213° Southwest 188 216 3,100 -1,200 Descending FlightAware ADS-B (YPRC)
02:56AM -27.2397 153.2112 206° Southwest 186 214 2,700 -1,080 Descending FlightAware ADS-B (YPRC)
02:56AM -27.2558 153.2022 206° Southwest 179 206 2,400 -900 Descending FlightAware ADS-B (YPRC)
02:56AM -27.2705 153.1938 207° Southwest 177 204 2,100 -900 Descending FlightAware ADS-B (YPRC)
02:57AM -27.2841 153.1860 207° Southwest 165 190 1,800 -960 Descending FlightAware ADS-B (YPRC)
02:57AM -27.2958 153.1793 207° Southwest 149 171 1,500 -780 Descending FlightAware ADS-B (YPRC)
02:57AM -27.3091 153.1718 207° Southwest 141 162 1,300 -780 Descending FlightAware ADS-B (YPRC)
02:58AM -27.3193 153.1659 207° Southwest 140 161 1,000 -780 Descending FlightAware ADS-B (YPRC)
02:58AM -27.3322 153.1586 207° Southwest 138 159 800 -780 Descending FlightAware ADS-B (YPRC)
02:58AM -27.3437 153.1520 207° Southwest 140 161 500 -780 Descending FlightAware ADS-B (YPRC)
02:59AM -27.3554 153.1453 207° Southwest 141 162 300 -600 Descending FlightAware ADS-B (YPRC)
02:59AM -27.3665 153.1389 207° Southwest 144 166 -900 Descending FlightAware ADS-B (YPRC)